Time;durP1;ratioP1;P1;durP2;ratioP2;P2;SDS_P1;SDS_P2;PMS_P1;PMS_P2;Temp;Humidity;BMP_temperature;BMP_pressure;BME280_temperature;BME280_humidity;BME280_pressure;Samples;Min_cycle;Max_cycle;Signal;HPM_P1;HPM_P2
2022/08/22 00:00:53;;;;;;;12.80;7.50;;;20.30;99.90;;;;;;4884140;24;20230;-76
2022/08/22 00:03:24;;;;;;;9.40;6.87;;;20.20;99.90;;;;;;4826565;29;20297;-76
2022/08/22 00:06:11;;;;;;;9.80;7.03;;;20.20;99.90;;;;;;4827297;29;20202;-76
2022/08/22 00:08:47;;;;;;;10.00;7.50;;;20.20;99.90;;;;;;4811790;29;20210;-76
2022/08/22 00:11:44;;;;;;;10.07;7.17;;;20.30;99.90;;;;;;4826513;29;20332;-77
2022/08/22 00:14:30;;;;;;;14.27;7.50;;;20.30;99.90;;;;;;4826762;29;20298;-77
2022/08/22 00:17:17;;;;;;;10.67;7.07;;;20.30;99.90;;;;;;4843236;29;20647;-77
2022/08/22 00:19:53;;;;;;;11.77;7.43;;;20.30;99.90;;;;;;4826607;29;20214;-77
2022/08/22 00:22:34;;;;;;;14.57;7.80;;;20.30;99.90;;;;;;4811609;29;20214;-76
2022/08/22 00:25:27;;;;;;;12.33;7.43;;;20.30;99.90;;;;;;4826539;29;20206;-77
2022/08/22 00:28:14;;;;;;;10.93;7.77;;;20.30;99.90;;;;;;4840204;29;20205;-76
2022/08/22 00:31:21;;;;;;;13.47;7.97;;;20.20;99.90;;;;;;4826370;29;20609;-76
2022/08/22 00:34:08;;;;;;;9.40;7.50;;;20.20;99.90;;;;;;4836818;24;20277;-75
2022/08/22 00:36:49;;;;;;;13.70;8.20;;;20.20;99.90;;;;;;4841580;29;20202;-76
2022/08/22 00:39:29;;;;;;;14.63;7.97;;;20.20;99.90;;;;;;4856955;29;20214;-76
2022/08/22 00:42:33;;;;;;;10.63;7.70;;;20.10;99.90;;;;;;4856720;29;20213;-76
2022/08/22 00:45:27;;;;;;;12.77;7.83;;;20.10;99.90;;;;;;4842779;29;20289;-76
2022/08/22 00:48:45;;;;;;;11.80;7.60;;;20.00;99.90;;;;;;4841419;29;20202;-76
2022/08/22 00:51:48;;;;;;;12.00;7.07;;;20.00;99.90;;;;;;4841129;29;20221;-77
2022/08/22 00:54:59;;;;;;;14.83;7.97;;;20.00;99.90;;;;;;4789063;29;20299;-77
2022/08/22 00:57:54;;;;;;;10.93;7.53;;;19.90;99.90;;;;;;4788611;29;20239;-76
2022/08/22 01:00:25;;;;;;;12.20;7.80;;;20.00;99.90;;;;;;4789197;29;20204;-78
2022/08/22 01:03:25;;;;;;;14.90;7.87;;;19.90;99.90;;;;;;4803506;29;20218;-77
2022/08/22 01:09:22;;;;;;;13.60;7.60;;;19.90;99.90;;;;;;4789007;29;20203;-76
2022/08/22 01:12:50;;;;;;;12.50;7.80;;;19.80;99.90;;;;;;4747128;30;20233;-77
2022/08/22 01:19:13;;;;;;;12.33;7.47;;;19.80;99.90;;;;;;4750793;24;20274;-77
2022/08/22 01:26:15;;;;;;;12.47;8.20;;;19.70;99.90;;;;;;4783659;30;20227;-77
2022/08/22 01:29:51;;;;;;;;;;;;;;;;;;;;;
2022/08/22 01:38:18;;;;;;;11.17;7.73;;;19.70;99.90;;;;;;4822282;29;20239;-77
2022/08/22 01:41:17;;;;;;;12.53;8.17;;;19.70;99.90;;;;;;4807530;29;20301;-77
2022/08/22 01:43:56;;;;;;;13.23;8.13;;;19.70;99.90;;;;;;4780310;29;20306;-76
2022/08/22 01:46:52;;;;;;;10.70;7.77;;;19.70;99.90;;;;;;4822519;29;20207;-77
2022/08/22 01:49:36;;;;;;;12.63;8.30;;;19.70;99.90;;;;;;4823599;29;20249;-77
2022/08/22 01:52:14;;;;;;;13.47;9.10;;;19.80;99.90;;;;;;4818924;24;20243;-76
2022/08/22 01:55:25;;;;;;;14.57;9.30;;;19.80;99.90;;;;;;4830055;24;20239;-77
2022/08/22 01:58:18;;;;;;;15.07;10.90;;;19.90;99.90;;;;;;4909725;24;20325;-77
2022/08/22 02:00:57;;;;;;;15.10;10.07;;;19.80;99.90;;;;;;4841510;29;20208;-77
2022/08/22 02:03:26;;;;;;;16.77;11.10;;;19.80;99.90;;;;;;4825182;29;20202;-77
2022/08/22 02:06:02;;;;;;;19.70;11.30;;;19.80;99.90;;;;;;4825475;29;20552;-76
2022/08/22 02:08:52;;;;;;;24.27;11.63;;;19.80;99.90;;;;;;4825377;29;20203;-76
2022/08/22 02:11:41;;;;;;;14.97;9.93;;;19.80;99.90;;;;;;4825192;29;20239;-76
2022/08/22 02:17:38;;;;;;;17.17;9.60;;;19.70;99.90;;;;;;5301957;24;20239;-76
2022/08/22 02:23:59;;;;;;;11.77;7.90;;;19.80;99.90;;;;;;4814210;27;20239;-75
2022/08/22 02:27:03;;;;;;;11.80;7.97;;;19.80;99.90;;;;;;4808593;29;20233;-76
2022/08/22 02:43:38;;;;;;;10.13;7.93;;;19.80;99.90;;;;;;4752177;30;20251;-77
2022/08/22 02:52:47;;;;;;;12.80;8.60;;;19.90;99.90;;;;;;4855204;24;20238;-77
2022/08/22 02:56:09;;;;;;;16.23;8.93;;;19.90;99.90;;;;;;4827925;29;20205;-77
2022/08/22 02:59:57;;;;;;;12.93;8.07;;;19.90;99.90;;;;;;4823976;29;20190;-77
2022/08/22 03:03:15;;;;;;;13.43;8.07;;;19.80;99.90;;;;;;4794501;29;20756;-76
2022/08/22 03:06:31;;;;;;;11.33;8.23;;;19.90;99.90;;;;;;4808987;29;20214;-76
2022/08/22 03:27:41;;;;;;;13.00;8.77;;;19.70;99.90;;;;;;5179370;24;20238;-77
2022/08/22 03:31:00;;;;;;;12.33;7.93;;;19.70;99.90;;;;;;4812198;29;20225;-77
2022/08/22 03:34:44;;;;;;;13.13;9.20;;;19.70;99.90;;;;;;4736133;30;20661;-77
2022/08/22 03:38:15;;;;;;;14.73;8.47;;;19.70;99.90;;;;;;5133263;24;20345;-76
2022/08/22 03:41:34;;;;;;;28.90;10.37;;;19.70;99.90;;;;;;4761049;30;20742;-78
2022/08/22 03:44:54;;;;;;;14.10;9.10;;;19.60;99.90;;;;;;4771936;30;20689;-78
2022/08/22 03:47:29;;;;;;;12.47;8.10;;;19.50;99.90;;;;;;4787032;30;20307;-77
2022/08/22 03:51:01;;;;;;;13.83;8.00;;;19.50;99.90;;;;;;4736027;30;20304;-76
2022/08/22 03:54:40;;;;;;;15.37;9.20;;;19.40;99.90;;;;;;4730056;30;20245;-77
2022/08/22 03:58:05;;;;;;;14.67;8.87;;;19.40;99.90;;;;;;4750953;30;20715;-77
2022/08/22 04:04:56;;;;;;;19.63;9.60;;;19.30;99.90;;;;;;3175055;27;20274;-77
2022/08/22 04:12:20;;;;;;;16.70;8.77;;;19.20;99.90;;;;;;4888241;24;20246;-78
2022/08/22 04:15:18;;;;;;;12.60;9.20;;;19.20;99.90;;;;;;4824915;29;20206;-77
2022/08/22 04:18:14;;;;;;;16.53;8.80;;;19.10;99.90;;;;;;4825526;29;20195;-77
2022/08/22 04:21:02;;;;;;;19.43;9.10;;;19.10;99.90;;;;;;4825471;29;20203;-78
2022/08/22 04:24:01;;;;;;;16.43;8.63;;;19.20;99.90;;;;;;4824958;29;20195;-77
2022/08/22 04:26:34;;;;;;;18.43;9.30;;;19.00;99.90;;;;;;4768807;30;20209;-76
2022/08/22 04:29:24;;;;;;;18.73;8.87;;;19.00;99.90;;;;;;4754213;30;20722;-76
2022/08/22 04:36:17;;;;;;;14.70;8.77;;;19.10;99.90;;;;;;4805563;29;20295;-78
2022/08/22 04:39:56;;;;;;;16.60;9.33;;;19.20;99.90;;;;;;4732522;30;20207;-77
2022/08/22 04:46:31;;;;;;;15.37;9.37;;;19.20;99.90;;;;;;4831927;24;20257;-78
2022/08/22 04:49:55;;;;;;;14.47;9.00;;;19.20;99.90;;;;;;4825491;29;20679;-78
2022/08/22 04:57:43;;;;;;;13.43;8.60;;;19.20;99.90;;;;;;4788133;29;20208;-77
2022/08/22 05:10:07;;;;;;;17.53;8.97;;;19.20;99.90;;;;;;4826122;29;20545;-77
2022/08/22 05:13:42;;;;;;;24.07;10.03;;;19.30;99.90;;;;;;4842027;29;20237;-77
2022/08/22 05:18:53;;;;;;;13.37;8.50;;;19.40;99.90;;;;;;4855376;29;20326;-78
2022/08/22 05:21:25;;;;;;;12.67;8.40;;;19.50;99.90;;;;;;4825705;29;20280;-77
2022/08/22 05:24:08;;;;;;;15.77;9.13;;;19.60;99.90;;;;;;4825764;29;20202;-77
2022/08/22 05:32:49;;;;;;;12.57;8.90;;;19.90;99.90;;;;;;4932493;24;20266;-76
2022/08/22 05:35:32;;;;;;;16.13;9.50;;;20.00;99.90;;;;;;4867979;24;20238;-77
2022/08/22 05:42:49;;;;;;;16.70;8.97;;;20.10;99.90;;;;;;4763640;29;20194;-74
2022/08/22 05:45:39;;;;;;;18.37;8.37;;;20.20;99.90;;;;;;4807392;29;20302;-76
2022/08/22 05:48:41;;;;;;;15.27;8.33;;;20.30;99.90;;;;;;4807454;29;20206;-75
2022/08/22 05:51:25;;;;;;;12.07;7.93;;;20.40;99.90;;;;;;4807394;29;20241;-76
2022/08/22 05:54:12;;;;;;;12.17;7.63;;;20.50;99.90;;;;;;4807252;29;20321;-75
2022/08/22 05:57:48;;;;;;;12.93;8.07;;;20.60;99.90;;;;;;4807818;29;20211;-76
2022/08/22 06:00:24;;;;;;;12.10;7.67;;;20.60;99.90;;;;;;4752876;30;20619;-76
2022/08/22 06:03:24;;;;;;;13.73;7.13;;;20.70;99.90;;;;;;4741483;30;20209;-75
2022/08/22 06:05:58;;;;;;;11.10;7.53;;;20.80;99.90;;;;;;4770818;30;20719;-74
2022/08/22 06:08:41;;;;;;;17.63;7.53;;;21.00;99.90;;;;;;4756065;30;20213;-75
2022/08/22 06:11:19;;;;;;;14.07;7.90;;;21.10;99.90;;;;;;4755962;30;20316;-75
2022/08/22 06:14:06;;;;;;;14.43;8.30;;;21.20;99.90;;;;;;4755766;30;20548;-76
2022/08/22 06:16:45;;;;;;;10.03;7.37;;;21.30;99.90;;;;;;4756166;30;20252;-76
2022/08/22 06:19:17;;;;;;;21.43;8.07;;;21.40;99.90;;;;;;4755888;30;20233;-75
2022/08/22 06:21:50;;;;;;;12.20;7.13;;;21.50;99.90;;;;;;4818809;24;20651;-75
2022/08/22 06:24:22;;;;;;;12.77;7.23;;;21.60;99.90;;;;;;4852962;24;20780;-74
2022/08/22 06:26:52;;;;;;;10.90;7.43;;;21.70;99.90;;;;;;4844996;29;20277;-75
2022/08/22 06:29:32;;;;;;;13.27;7.20;;;21.60;99.90;;;;;;4859484;29;20663;-75
2022/08/22 06:32:07;;;;;;;10.93;7.17;;;21.80;99.90;;;;;;4841268;29;20221;-75
2022/08/22 06:34:38;;;;;;;10.37;7.20;;;21.80;99.90;;;;;;4825430;29;20340;-75
2022/08/22 06:37:10;;;;;;;11.63;7.00;;;21.90;99.90;;;;;;4825652;29;20321;-76
2022/08/22 06:39:44;;;;;;;9.60;6.93;;;21.90;99.90;;;;;;4825383;29;20213;-75
2022/08/22 06:42:32;;;;;;;11.27;7.60;;;21.90;99.90;;;;;;4825148;29;20210;-74
2022/08/22 06:45:08;;;;;;;18.07;7.50;;;22.10;99.90;;;;;;4825696;29;20199;-75
2022/08/22 06:47:46;;;;;;;10.83;7.13;;;22.10;99.90;;;;;;4826233;29;20783;-75
2022/08/22 06:50:26;;;;;;;10.00;6.80;;;22.20;99.90;;;;;;4825215;29;20241;-76
2022/08/22 06:53:27;;;;;;;10.43;6.90;;;22.30;99.90;;;;;;4824628;29;20244;-77
2022/08/22 06:56:01;;;;;;;17.30;8.77;;;22.40;99.90;;;;;;4825093;29;20211;-76
2022/08/22 06:59:19;;;;;;;;;;;;;;;;;;;;;
2022/08/22 07:03:03;;;;;;;12.60;7.23;;;22.70;99.90;;;;;;4787966;30;20679;-78
2022/08/22 07:05:38;;;;;;;11.93;7.43;;;22.80;99.90;;;;;;4798823;24;20325;-76
2022/08/22 07:08:14;;;;;;;15.13;6.93;;;23.00;99.90;;;;;;4812987;29;20296;-76
2022/08/22 07:10:53;;;;;;;11.03;7.30;;;23.20;99.90;;;;;;4844601;29;20198;-77
2022/08/22 07:13:23;;;;;;;16.93;7.73;;;23.20;99.90;;;;;;4826521;29;20222;-76
2022/08/22 07:16:01;;;;;;;12.07;7.00;;;23.30;99.90;;;;;;4828245;29;20305;-76
2022/08/22 07:18:30;;;;;;;20.40;8.00;;;23.50;99.90;;;;;;4828280;29;20213;-77
2022/08/22 07:21:24;;;;;;;19.97;7.93;;;23.60;99.90;;;;;;4825735;29;20203;-77
2022/08/22 07:23:53;;;;;;;11.27;6.77;;;23.60;99.90;;;;;;4844062;29;20205;-75
2022/08/22 07:26:39;;;;;;;10.47;7.10;;;23.60;99.90;;;;;;4828573;24;20242;-74
2022/08/22 07:29:18;;;;;;;9.97;6.87;;;23.70;99.90;;;;;;4842744;29;20664;-75
2022/08/22 07:32:07;;;;;;;12.90;6.93;;;23.80;99.90;;;;;;4841909;29;20719;-74
2022/08/22 07:35:15;;;;;;;14.60;7.10;;;23.90;99.90;;;;;;4824272;29;20237;-76
2022/08/22 07:38:06;;;;;;;12.90;6.60;;;24.00;99.90;;;;;;4823251;29;20320;-77
2022/08/22 07:41:01;;;;;;;11.63;6.30;;;24.00;99.90;;;;;;4823266;29;20233;-79
2022/08/22 07:43:45;;;;;;;9.33;6.50;;;24.10;99.90;;;;;;4808321;29;20232;-78
2022/08/22 07:46:57;;;;;;;11.50;6.22;;;24.10;99.90;;;;;;4926285;24;20194;-80
2022/08/22 07:49:51;;;;;;;8.95;6.63;;;24.30;99.90;;;;;;4793373;29;20240;-78
2022/08/22 07:52:20;;;;;;;10.40;6.17;;;24.30;99.90;;;;;;4808990;29;20227;-71
2022/08/22 07:55:21;;;;;;;9.32;6.18;;;24.30;99.90;;;;;;4825101;29;20314;-73
2022/08/22 07:57:59;;;;;;;10.25;6.28;;;24.50;99.90;;;;;;4807101;29;20209;-72
2022/08/22 08:00:28;;;;;;;10.32;6.40;;;24.60;99.90;;;;;;4808761;29;20207;-72
2022/08/22 08:02:59;;;;;;;18.17;6.70;;;24.60;99.90;;;;;;4808765;29;20313;-71
2022/08/22 08:05:31;;;;;;;9.40;6.13;;;24.70;99.90;;;;;;4808714;29;20221;-73
2022/08/22 08:08:03;;;;;;;10.50;6.25;;;24.90;99.90;;;;;;4808672;29;20675;-72
2022/08/22 08:10:35;;;;;;;10.82;6.03;;;25.70;99.90;;;;;;4808925;29;20229;-73
2022/08/22 08:13:08;;;;;;;10.35;6.20;;;26.40;99.90;;;;;;4808767;29;20552;-73
2022/08/22 08:15:38;;;;;;;9.25;5.80;;;26.40;99.90;;;;;;4808429;29;20233;-73
2022/08/22 08:18:12;;;;;;;9.10;5.88;;;26.40;99.90;;;;;;4808503;29;20298;-74
2022/08/22 08:20:39;;;;;;;8.60;5.90;;;26.70;99.90;;;;;;4823584;29;20243;-71
2022/08/22 08:23:10;;;;;;;11.48;6.00;;;26.80;99.90;;;;;;4824783;29;20628;-75
2022/08/22 08:26:11;;;;;;;9.52;6.38;;;27.40;99.90;;;;;;4808666;29;20237;-71
2022/08/22 08:28:45;;;;;;;8.63;5.80;;;27.90;99.90;;;;;;4808449;29;20545;-70
2022/08/22 08:31:23;;;;;;;9.70;5.40;;;28.30;99.90;;;;;;4808434;29;20198;-73
2022/08/22 08:34:15;;;;;;;10.20;6.03;;;28.70;99.90;;;;;;4807993;29;20255;-72
2022/08/22 08:36:58;;;;;;;7.68;5.57;;;28.90;99.90;;;;;;4808162;29;20281;-73
2022/08/22 08:39:49;;;;;;;8.68;5.93;;;29.10;99.90;;;;;;4808158;29;20293;-71
2022/08/22 08:45:48;;;;;;;9.73;5.85;;;29.40;99.90;;;;;;4824368;29;20563;-71
2022/08/22 08:48:37;;;;;;;12.50;5.95;;;29.90;99.90;;;;;;4825143;29;20313;-72
2022/08/22 08:51:37;;;;;;;8.90;5.82;;;30.10;99.90;;;;;;4807657;29;20207;-76
2022/08/22 08:54:43;;;;;;;10.25;5.70;;;30.30;99.90;;;;;;4807799;29;20258;-75
2022/08/22 08:57:40;;;;;;;17.95;7.05;;;30.00;99.90;;;;;;4807889;29;20195;-76
2022/08/22 09:00:19;;;;;;;19.10;7.03;;;29.80;99.90;;;;;;4822773;29;20195;-76
2022/08/22 09:03:13;;;;;;;16.25;6.65;;;29.80;99.90;;;;;;4822676;29;20202;-74
2022/08/22 09:06:08;;;;;;;9.82;5.78;;;29.90;99.90;;;;;;4807311;29;20199;-73
2022/08/22 09:08:50;;;;;;;9.10;5.70;;;30.00;99.90;;;;;;4823702;29;20221;-75
2022/08/22 09:11:57;;;;;;;6.38;5.22;;;30.10;99.90;;;;;;4824172;29;20229;-77
2022/08/22 09:14:42;;;;;;;13.02;5.97;;;30.10;99.90;;;;;;4807254;29;20223;-76
2022/08/22 09:17:38;;;;;;;7.57;5.22;;;30.30;99.90;;;;;;4807532;29;20206;-80
2022/08/22 09:20:16;;;;;;;9.93;5.40;;;30.70;99.90;;;;;;4807719;29;20293;-75
2022/08/22 09:22:57;;;;;;;9.23;5.22;;;30.90;99.90;;;;;;4806867;29;20198;-72
2022/08/22 09:25:32;;;;;;;10.45;5.95;;;30.90;99.90;;;;;;4807126;29;20305;-75
2022/08/22 09:28:18;;;;;;;11.98;6.03;;;30.50;99.90;;;;;;4823438;29;20187;-73
2022/08/22 09:30:51;;;;;;;9.38;5.65;;;30.10;99.90;;;;;;4823578;29;20206;-73
2022/08/22 09:33:23;;;;;;;9.45;5.35;;;29.40;99.90;;;;;;4806881;29;20233;-75
2022/08/22 09:36:05;;;;;;;7.47;5.43;;;29.20;99.90;;;;;;4823382;29;20206;-71
2022/08/22 09:38:58;;;;;;;10.82;5.65;;;28.90;99.90;;;;;;4826036;29;20207;-75
2022/08/22 09:41:51;;;;;;;9.90;5.88;;;28.70;99.90;;;;;;4827461;29;20545;-70
2022/08/22 09:44:39;;;;;;;14.05;6.07;;;28.40;99.90;;;;;;4811221;29;20252;-75
2022/08/22 09:47:38;;;;;;;11.57;5.85;;;28.40;99.90;;;;;;4826871;29;20700;-78
2022/08/22 09:50:15;;;;;;;8.15;5.30;;;28.20;99.90;;;;;;4810681;29;20576;-73
2022/08/22 09:53:10;;;;;;;11.43;5.30;;;28.00;99.90;;;;;;4810852;29;20253;-71
2022/08/22 09:56:01;;;;;;;11.15;5.40;;;27.90;99.90;;;;;;4811093;29;20749;-74
2022/08/22 09:59:01;;;;;;;9.07;5.47;;;27.90;99.90;;;;;;4827384;29;20551;-74
2022/08/22 10:01:52;;;;;;;6.78;5.28;;;27.90;99.90;;;;;;4810617;29;20683;-74
2022/08/22 10:04:41;;;;;;;7.18;5.20;;;27.80;99.90;;;;;;4810893;29;20653;-73
2022/08/22 10:07:29;;;;;;;10.25;5.68;;;27.80;99.90;;;;;;4826003;29;20203;-74
2022/08/22 10:09:56;;;;;;;11.43;5.72;;;27.80;99.90;;;;;;4810400;29;20205;-74
2022/08/22 10:12:35;;;;;;;7.15;5.65;;;27.90;99.90;;;;;;4825674;29;20245;-74
2022/08/22 10:15:11;;;;;;;12.27;5.90;;;27.90;99.90;;;;;;4810621;29;20236;-73
2022/08/22 10:18:00;;;;;;;8.65;5.20;;;27.80;99.90;;;;;;4826722;29;20197;-76
2022/08/22 10:20:31;;;;;;;12.80;5.57;;;27.90;99.90;;;;;;4810337;29;20302;-75
2022/08/22 10:23:19;;;;;;;13.15;5.65;;;28.00;99.90;;;;;;4810260;29;20210;-75
2022/08/22 10:25:55;;;;;;;8.55;5.13;;;28.00;99.90;;;;;;4810753;29;20210;-74
2022/08/22 10:28:39;;;;;;;16.83;6.35;;;28.00;99.90;;;;;;4810823;29;20195;-75
2022/08/22 10:31:24;;;;;;;9.93;5.35;;;27.90;99.90;;;;;;4810250;29;20294;-75
2022/08/22 10:33:59;;;;;;;10.23;5.50;;;27.90;99.90;;;;;;4810339;29;20243;-73
2022/08/22 10:36:37;;;;;;;8.82;4.90;;;27.90;99.90;;;;;;4810052;29;20302;-75
2022/08/22 10:39:09;;;;;;;6.55;4.85;;;28.00;99.90;;;;;;4826370;29;20718;-75
2022/08/22 10:41:55;;;;;;;10.18;5.38;;;28.10;99.90;;;;;;4826291;29;20669;-74
2022/08/22 10:44:50;;;;;;;8.45;5.30;;;28.20;99.90;;;;;;4810279;29;20239;-74
2022/08/22 10:47:24;;;;;;;15.82;5.80;;;28.30;99.90;;;;;;4815808;29;20231;-71
2022/08/22 10:50:01;;;;;;;8.98;5.38;;;28.40;99.90;;;;;;4825166;29;20230;-68
2022/08/22 10:52:46;;;;;;;8.20;5.38;;;28.40;99.90;;;;;;4824923;29;20605;-71
2022/08/22 10:55:25;;;;;;;12.68;6.00;;;28.30;99.90;;;;;;4824887;29;20599;-75
2022/08/22 10:58:11;;;;;;;9.13;5.90;;;28.40;99.90;;;;;;4825262;29;20358;-74
2022/08/22 11:00:56;;;;;;;10.77;5.97;;;28.30;99.90;;;;;;4824931;29;20676;-73
2022/08/22 11:03:36;;;;;;;8.07;5.60;;;28.30;99.90;;;;;;4825183;29;20309;-81
2022/08/22 11:06:11;;;;;;;10.90;5.93;;;28.10;99.90;;;;;;4824766;29;20207;-72
2022/08/22 11:09:16;;;;;;;11.80;6.15;;;28.10;99.90;;;;;;4824499;29;20199;-74
2022/08/22 11:12:22;;;;;;;8.80;5.40;;;28.20;99.90;;;;;;4824184;29;20638;-75
2022/08/22 11:15:07;;;;;;;10.80;5.80;;;28.30;99.90;;;;;;4787644;30;20297;-71
2022/08/22 11:18:14;;;;;;;10.35;6.03;;;28.30;99.90;;;;;;4787690;30;20269;-70
2022/08/22 11:21:00;;;;;;;11.32;5.88;;;28.30;99.90;;;;;;4787602;30;20223;-69
2022/08/22 11:23:43;;;;;;;10.43;5.75;;;28.30;99.90;;;;;;4787248;30;20261;-70
2022/08/22 11:26:34;;;;;;;8.20;5.78;;;28.20;99.90;;;;;;4787668;30;20307;-72
2022/08/22 11:29:38;;;;;;;9.02;6.07;;;28.20;99.90;;;;;;4772416;30;20222;-72
2022/08/22 11:32:32;;;;;;;10.63;5.93;;;28.00;99.90;;;;;;4772174;30;20264;-76
2022/08/22 11:35:04;;;;;;;12.98;5.97;;;28.00;99.90;;;;;;4772410;30;20223;-74
2022/08/22 11:37:50;;;;;;;11.93;6.60;;;27.90;99.90;;;;;;4787288;30;20780;-72
2022/08/22 11:40:43;;;;;;;11.73;6.25;;;28.00;99.90;;;;;;4787014;30;20211;-73
2022/08/22 11:43:30;;;;;;;8.50;6.30;;;28.00;99.90;;;;;;4772298;30;20207;-74
2022/08/22 11:46:12;;;;;;;10.15;5.72;;;27.90;99.90;;;;;;4787092;30;20217;-73
2022/08/22 11:49:05;;;;;;;13.23;6.20;;;27.90;99.90;;;;;;4787124;30;20220;-76
2022/08/22 11:51:49;;;;;;;11.90;6.55;;;28.00;99.90;;;;;;4812524;29;20340;-73
2022/08/22 11:54:25;;;;;;;10.82;6.07;;;28.00;99.90;;;;;;4838897;29;20298;-75
2022/08/22 11:57:17;;;;;;;10.95;6.20;;;28.00;99.90;;;;;;4824168;29;20217;-74
2022/08/22 11:59:44;;;;;;;11.52;5.93;;;28.00;99.90;;;;;;4823343;29;20211;-73
2022/08/22 12:02:17;;;;;;;8.10;5.85;;;27.90;99.90;;;;;;4823832;29;20211;-72
2022/08/22 12:04:50;;;;;;;8.50;6.05;;;27.70;99.90;;;;;;4823697;29;20291;-73
2022/08/22 12:07:28;;;;;;;8.52;5.95;;;27.70;99.90;;;;;;4823634;29;20678;-73
2022/08/22 12:10:05;;;;;;;9.35;5.53;;;27.70;99.90;;;;;;4825090;29;20203;-74
2022/08/22 12:13:03;;;;;;;9.68;5.68;;;27.70;99.90;;;;;;4838866;29;20203;-74
2022/08/22 12:15:51;;;;;;;8.23;5.35;;;27.70;99.90;;;;;;4823416;29;20223;-72
2022/08/22 12:18:38;;;;;;;10.32;5.45;;;27.80;99.90;;;;;;4823575;29;20279;-74
2022/08/22 12:21:34;;;;;;;10.20;5.80;;;27.80;99.90;;;;;;4823513;29;20250;-73
2022/08/22 12:24:31;;;;;;;9.75;5.45;;;27.80;99.90;;;;;;4823350;29;20217;-71
2022/08/22 12:27:33;;;;;;;10.80;5.88;;;27.70;99.90;;;;;;4823472;29;20199;-72
2022/08/22 12:30:18;;;;;;;11.02;5.63;;;27.60;99.90;;;;;;4823532;29;20210;-72
2022/08/22 12:32:57;;;;;;;9.93;6.28;;;27.40;99.90;;;;;;4838367;29;20281;-72
2022/08/22 12:35:38;;;;;;;15.60;6.43;;;27.40;99.90;;;;;;4824700;29;20263;-74
2022/08/22 12:38:32;;;;;;;11.15;5.57;;;27.40;99.90;;;;;;4822928;29;20211;-72
2022/08/22 12:41:18;;;;;;;9.27;5.65;;;27.50;99.90;;;;;;4824419;29;20559;-72
2022/08/22 12:44:21;;;;;;;13.32;5.60;;;27.40;99.90;;;;;;4823507;29;20246;-73
2022/08/22 12:47:01;;;;;;;12.05;5.35;;;27.40;99.90;;;;;;4823212;29;20259;-71
2022/08/22 12:49:37;;;;;;;11.63;5.93;;;27.40;99.90;;;;;;4823349;29;20215;-73
2022/08/22 12:52:44;;;;;;;8.65;5.38;;;27.40;99.90;;;;;;4838296;29;20214;-71
2022/08/22 12:55:48;;;;;;;9.52;5.75;;;27.50;99.90;;;;;;4823013;29;20265;-71
2022/08/22 12:58:44;;;;;;;9.13;5.90;;;27.60;99.90;;;;;;4785826;30;20267;-71
2022/08/22 13:01:17;;;;;;;10.35;5.50;;;27.60;99.90;;;;;;4785901;30;20240;-71
2022/08/22 13:04:17;;;;;;;11.65;6.65;;;27.60;99.90;;;;;;4785740;30;20229;-70
2022/08/22 13:07:04;;;;;;;14.20;7.82;;;27.60;99.90;;;;;;4771092;30;20227;-70
2022/08/22 13:09:39;;;;;;;9.43;5.65;;;27.60;99.90;;;;;;4785572;29;20715;-70
2022/08/22 13:12:24;;;;;;;8.07;5.47;;;27.60;99.90;;;;;;4770247;30;20217;-71
2022/08/22 13:15:02;;;;;;;10.98;5.53;;;27.70;99.90;;;;;;4785591;30;20238;-70
2022/08/22 13:17:29;;;;;;;10.80;5.50;;;27.70;99.90;;;;;;4785633;30;20214;-70
2022/08/22 13:20:05;;;;;;;17.25;6.40;;;27.80;99.90;;;;;;4785733;30;20204;-71
2022/08/22 13:22:37;;;;;;;18.85;6.57;;;27.90;99.90;;;;;;4785602;30;20592;-71
2022/08/22 13:25:06;;;;;;;12.95;6.30;;;27.80;99.90;;;;;;4785690;30;20501;-70
2022/08/22 13:28:01;;;;;;;16.35;6.30;;;27.80;99.90;;;;;;4770642;30;20200;-70
2022/08/22 13:30:34;;;;;;;10.82;5.80;;;27.90;99.90;;;;;;4770637;30;20695;-70
2022/08/22 13:33:23;;;;;;;14.02;6.00;;;28.00;99.90;;;;;;4770527;30;20323;-69
2022/08/22 13:36:05;;;;;;;20.55;6.75;;;28.10;99.90;;;;;;4811951;29;20693;-70
2022/08/22 13:38:40;;;;;;;13.13;5.32;;;28.10;99.90;;;;;;4822812;29;20207;-70
2022/08/22 13:41:17;;;;;;;9.27;5.72;;;28.20;99.90;;;;;;4822753;29;20230;-70
2022/08/22 13:44:05;;;;;;;14.40;6.20;;;28.10;99.90;;;;;;4821579;29;20198;-70
2022/08/22 13:46:34;;;;;;;11.50;5.35;;;28.10;99.90;;;;;;4822697;29;20226;-75
2022/08/22 13:49:11;;;;;;;10.80;5.85;;;28.10;99.90;;;;;;4807348;29;20568;-75
2022/08/22 13:52:10;;;;;;;8.30;5.20;;;28.20;99.90;;;;;;4807122;29;20209;-76
2022/08/22 13:55:15;;;;;;;15.98;6.22;;;28.30;99.90;;;;;;4807039;29;20408;-75
2022/08/22 13:58:16;;;;;;;8.15;5.18;;;28.30;99.90;;;;;;4810182;29;20256;-75
2022/08/22 14:01:01;;;;;;;12.55;5.53;;;28.30;99.90;;;;;;4785404;30;20618;-71
2022/08/22 14:03:39;;;;;;;8.85;5.40;;;28.20;99.90;;;;;;4770247;30;20212;-72
2022/08/22 14:06:33;;;;;;;12.13;5.40;;;28.30;99.90;;;;;;4785360;30;20209;-72
2022/08/22 14:09:24;;;;;;;8.80;5.65;;;28.30;99.90;;;;;;4785190;30;20569;-71
2022/08/22 14:12:16;;;;;;;10.77;5.57;;;28.30;99.90;;;;;;4780879;30;20349;-72
2022/08/22 14:14:47;;;;;;;8.98;5.80;;;28.30;99.90;;;;;;4770413;30;20322;-71
2022/08/22 14:17:22;;;;;;;11.73;5.60;;;28.30;99.90;;;;;;4785136;30;20211;-74
2022/08/22 14:20:23;;;;;;;12.55;5.43;;;28.20;99.90;;;;;;4785018;30;20204;-73
2022/08/22 14:23:14;;;;;;;10.80;5.72;;;28.10;99.90;;;;;;4769686;30;20208;-72
2022/08/22 14:25:42;;;;;;;10.98;5.35;;;28.10;99.90;;;;;;4770900;30;20224;-72
2022/08/22 14:28:31;;;;;;;9.13;5.60;;;28.00;99.90;;;;;;4770493;30;20660;-72
2022/08/22 14:31:07;;;;;;;12.60;5.63;;;27.90;99.90;;;;;;4755415;30;20213;-73
2022/08/22 14:33:47;;;;;;;13.05;5.88;;;27.90;99.90;;;;;;4770557;30;20709;-73
2022/08/22 14:36:21;;;;;;;11.10;5.25;;;27.90;99.90;;;;;;4755564;30;20315;-73
2022/08/22 14:39:01;;;;;;;17.45;6.80;;;28.00;99.90;;;;;;4771545;29;20210;-73
2022/08/22 14:41:35;;;;;;;8.15;5.65;;;28.10;99.90;;;;;;4788482;30;20343;-72
2022/08/22 14:44:31;;;;;;;13.18;5.72;;;28.00;99.90;;;;;;4788170;30;20624;-72
2022/08/22 14:47:03;;;;;;;11.40;6.20;;;27.80;99.90;;;;;;4788116;29;20328;-71
2022/08/22 14:49:57;;;;;;;16.02;6.20;;;27.80;99.90;;;;;;4788197;30;20200;-73
2022/08/22 14:52:45;;;;;;;9.82;5.72;;;27.80;99.90;;;;;;4788002;30;20712;-72
2022/08/22 14:55:21;;;;;;;15.90;6.25;;;27.80;99.90;;;;;;4788072;30;20232;-73
2022/08/22 14:57:59;;;;;;;15.85;6.80;;;27.90;99.90;;;;;;4781845;29;20202;-73
2022/08/22 15:00:37;;;;;;;11.25;6.10;;;28.00;99.90;;;;;;4810566;29;20586;-72
2022/08/22 15:03:32;;;;;;;14.52;6.80;;;28.00;99.90;;;;;;4809844;29;20690;-74
2022/08/22 15:06:12;;;;;;;11.77;6.57;;;28.10;99.90;;;;;;4809905;29;20271;-74
2022/08/22 15:08:48;;;;;;;13.95;6.45;;;28.10;99.90;;;;;;4810034;29;20225;-73
2022/08/22 15:11:23;;;;;;;9.23;6.05;;;27.90;99.90;;;;;;4825115;29;20206;-73
2022/08/22 15:13:57;;;;;;;12.63;6.20;;;27.70;99.90;;;;;;4825024;29;20202;-73
2022/08/22 15:16:44;;;;;;;8.55;5.78;;;27.70;99.90;;;;;;4826009;29;20306;-73
2022/08/22 15:19:34;;;;;;;15.20;6.50;;;27.60;99.90;;;;;;4824626;29;20207;-74
2022/08/22 15:22:15;;;;;;;12.18;6.30;;;27.60;99.90;;;;;;4809301;29;20210;-72
2022/08/22 15:25:04;;;;;;;13.00;6.30;;;27.50;99.90;;;;;;4824486;29;20222;-72
2022/08/22 15:28:04;;;;;;;14.50;6.40;;;27.60;99.90;;;;;;4825351;29;20300;-73
2022/08/22 15:30:38;;;;;;;16.10;6.20;;;27.60;99.90;;;;;;4804523;29;20221;-74
2022/08/22 15:33:25;;;;;;;20.55;6.88;;;27.50;99.90;;;;;;4808478;29;20215;-72
2022/08/22 15:36:14;;;;;;;10.55;5.93;;;27.50;99.90;;;;;;4809664;29;20734;-72
2022/08/22 15:38:46;;;;;;;9.68;5.93;;;27.30;99.90;;;;;;4824741;29;20196;-74
2022/08/22 15:41:32;;;;;;;17.20;6.45;;;27.30;99.90;;;;;;4824228;29;20230;-72
2022/08/22 15:44:29;;;;;;;11.77;6.53;;;27.20;99.90;;;;;;4825278;29;20545;-72
2022/08/22 15:47:20;;;;;;;12.00;6.40;;;27.20;99.90;;;;;;4824118;29;20235;-72
2022/08/22 15:50:00;;;;;;;15.07;6.82;;;27.20;99.90;;;;;;4809394;29;20217;-73
2022/08/22 15:52:34;;;;;;;12.65;6.63;;;27.20;99.90;;;;;;4823785;29;20242;-73
2022/08/22 15:55:12;;;;;;;12.32;6.10;;;27.10;99.90;;;;;;4809390;29;20553;-73
2022/08/22 15:57:48;;;;;;;11.00;6.22;;;27.00;99.90;;;;;;4824399;29;20297;-74
2022/08/22 16:00:23;;;;;;;11.52;6.35;;;26.90;99.90;;;;;;4825575;29;20205;-74
2022/08/22 16:03:07;;;;;;;20.95;7.93;;;26.80;99.90;;;;;;4808692;29;20610;-73
2022/08/22 16:06:10;;;;;;;14.63;6.65;;;26.70;99.90;;;;;;4823385;29;20207;-73
2022/08/22 16:08:45;;;;;;;14.88;6.60;;;26.70;99.90;;;;;;4825577;29;20218;-74
2022/08/22 16:11:28;;;;;;;10.05;6.32;;;26.70;99.90;;;;;;4825219;29;20205;-72
2022/08/22 16:14:33;;;;;;;16.65;6.82;;;26.70;99.90;;;;;;4823854;29;20202;-72